Terminal Aerodrome Forecast
Issued by NWS

Home | Current Version | Previous Version | Text Only | Print | Product List | Glossary On
Versions: 1 2 3 4 5 6 7 8 9 10 11 12
204
FTUS46 KEKA 241155
TAFUKI
TAF
KUKI 241155Z 2412/2512 34005KT P6SM SCT026 BKN035 OVC045
     FM241600 27010KT 5SM -SHRA BR OVC020
     FM250000 29008KT P6SM SCT025 OVC060
     FM251000 VRB03KT P6SM SCT080=

USA.gov is the U.S. government's official web portal to all federal, state and local government web resources and services.